SBRJ/SDU METAR and TAF weather

Enter ICAO airport designator
Station Type Date Time Source
SBRJ METAR 2021/09/16 22:16 UTC NOAA

SBRJ 162216Z 15008KT 5000 -RA BR BKN007 OVC015 20/20 Q1024


Station Type Date Time Source
SBRJ Decoded METAR 2021/09/16 22:16 UTC NOAA

Rio De Janeiro Aeroporto , Brazil (SBRJ) 22-54S 043-10W
Sep 16, 2021 - 06:16 PM EDT / 2021.09.16 2216 UTC
Wind: from the SSE (150 degrees) at 9 MPH (8 KT):0
Visibility: 3 mile(s):0
Sky conditions: overcast
Weather: light rain; mist
Temperature: 68 F (20 C)
Dew Point: 68 F (20 C)
Relative Humidity: 100%
Pressure (altimeter): 30.24 in. Hg (1024 hPa)
ob: SBRJ 162216Z 15008KT 5000 -RA BR BKN007 OVC015 20/20 Q1024
cycle: 22

Station Type Date Time Source
SBRJ TAF 2021/09/16 18:39 UTC NOAA

TAF SBRJ 161535Z 1618/1706 13010KT 7000 BKN015 OVC030 TX22/1618Z TN20/1706Z
TEMPO 1618/1622 15015KT 4000 RA BR BKN010 OVC020
BECMG 1703/1705 11007KT 6000 RA BKN012 OVC025
RMK PFV

Example: see airport list